Time;durP1;ratioP1;P1;durP2;ratioP2;P2;SDS_P1;SDS_P2;PMS_P1;PMS_P2;Temp;Humidity;BMP_temperature;BMP_pressure;BME280_temperature;BME280_humidity;BME280_pressure;Samples;Min_cycle;Max_cycle;Signal;HPM_P1;HPM_P2
2021/10/06 00:01:34;;;;;;;15.85;4.75;;;14.00;99.90;;;14.35;81.28;100467.00;4844758;29;20057;-79
2021/10/06 00:04:03;;;;;;;11.55;4.28;;;14.10;99.90;;;14.27;80.22;100455.69;4844801;29;20165;-79
2021/10/06 00:06:31;;;;;;;17.60;4.32;;;14.10;99.90;;;14.30;80.28;100460.06;4844475;29;20129;-79
2021/10/06 00:09:00;;;;;;;8.82;3.38;;;14.10;99.90;;;13.49;80.31;100365.47;4844457;29;20075;-79
2021/10/06 00:11:28;;;;;;;11.80;3.97;;;13.90;99.90;;;14.11;81.17;100475.56;4844625;29;20085;-79
2021/10/06 00:13:58;;;;;;;9.52;4.30;;;13.90;99.90;;;13.88;81.82;100445.19;4844204;29;20053;-80
2021/10/06 00:16:27;;;;;;;15.57;4.00;;;13.80;99.90;;;13.95;82.38;100482.22;4844387;29;20049;-80
2021/10/06 00:18:55;;;;;;;13.93;3.90;;;13.80;99.90;;;13.97;82.14;100466.22;4844204;29;20058;-79
2021/10/06 00:21:24;;;;;;;8.93;3.70;;;13.70;99.90;;;13.41;81.68;100391.34;4844180;29;20573;-79
2021/10/06 00:23:52;;;;;;;9.63;3.72;;;13.70;99.90;;;13.88;82.04;100461.13;4844131;29;20108;-79
2021/10/06 00:26:21;;;;;;;12.27;4.25;;;13.70;99.90;;;13.63;82.20;100422.75;4844125;29;20629;-79
2021/10/06 00:28:49;;;;;;;13.15;4.05;;;13.70;99.90;;;13.90;82.41;100480.56;4844045;29;20046;-79
2021/10/06 00:31:19;;;;;;;11.75;4.13;;;13.60;99.90;;;13.76;81.36;100482.69;4843949;29;20095;-79
2021/10/06 00:33:47;;;;;;;15.35;3.85;;;13.60;99.90;;;13.74;80.72;100464.13;4843081;29;20053;-79
2021/10/06 00:36:16;;;;;;;8.88;3.28;;;13.60;99.90;;;13.95;80.10;100473.34;4843832;29;20042;-79
2021/10/06 00:38:44;;;;;;;10.63;4.22;;;13.70;99.90;;;13.86;79.73;100481.56;4843802;29;20058;-79
2021/10/06 00:41:13;;;;;;;10.70;3.83;;;13.60;99.90;;;13.33;78.77;100395.13;4843844;29;20469;-80
2021/10/06 00:43:41;;;;;;;8.75;3.60;;;13.70;99.90;;;13.87;78.02;100494.81;4844038;29;20052;-79
2021/10/06 00:46:10;;;;;;;6.53;3.20;;;13.60;99.90;;;13.83;78.00;100495.78;4844162;29;20062;-79
2021/10/06 00:48:39;;;;;;;8.02;3.63;;;13.70;99.90;;;13.67;78.57;100482.88;4843905;29;20050;-80
2021/10/06 00:51:08;;;;;;;7.80;3.53;;;13.50;99.90;;;13.84;77.49;100502.00;4844053;29;20045;-80
2021/10/06 00:53:36;;;;;;;5.82;3.63;;;13.60;99.90;;;13.93;77.81;100515.06;4843592;29;20129;-79
2021/10/06 00:56:05;;;;;;;11.20;3.70;;;13.70;99.90;;;13.71;79.08;100484.56;4843837;29;20042;-79
2021/10/06 00:58:34;;;;;;;7.78;3.67;;;13.60;99.90;;;13.41;79.62;100422.38;4843889;29;20053;-79
2021/10/06 01:01:03;;;;;;;10.48;3.72;;;13.70;99.90;;;13.55;79.67;100463.66;4843511;29;20461;-79
2021/10/06 01:03:32;;;;;;;10.15;4.32;;;13.60;99.90;;;14.00;79.85;100512.22;4843969;29;20046;-79
2021/10/06 01:06:01;;;;;;;12.30;4.45;;;13.70;99.90;;;13.91;79.80;100520.41;4843373;29;20054;-80
2021/10/06 01:08:30;;;;;;;7.60;3.40;;;13.70;99.90;;;13.63;79.37;100481.22;4843333;29;20033;-79
2021/10/06 01:10:58;;;;;;;13.07;3.67;;;13.60;99.90;;;13.71;78.85;100480.13;4843243;29;20097;-79
2021/10/06 01:13:27;;;;;;;8.82;3.67;;;13.70;99.90;;;13.66;79.06;100505.94;4843230;29;20560;-79
2021/10/06 01:15:57;;;;;;;7.53;3.75;;;13.70;99.90;;;13.74;79.76;100524.38;4843240;29;20045;-79
2021/10/06 01:18:25;;;;;;;9.48;3.75;;;13.60;99.90;;;13.84;79.25;100517.94;4843553;29;20050;-79
2021/10/06 01:20:53;;;;;;;8.75;3.85;;;13.60;99.90;;;13.92;79.73;100532.78;4843436;29;20129;-79
2021/10/06 01:23:23;;;;;;;7.95;3.40;;;13.70;99.90;;;13.80;80.64;100526.91;4843106;29;20045;-79
2021/10/06 01:25:52;;;;;;;10.35;3.92;;;13.60;99.90;;;13.91;80.78;100517.75;4843364;29;20082;-79
2021/10/06 01:28:20;;;;;;;17.10;4.30;;;13.70;99.90;;;13.99;80.53;100542.38;4843048;29;20073;-79
2021/10/06 01:30:49;;;;;;;10.05;3.95;;;13.80;99.90;;;14.02;80.68;100526.34;4841966;29;20050;-79
2021/10/06 01:33:17;;;;;;;10.30;4.28;;;13.80;99.90;;;13.69;79.70;100473.06;4843250;29;20444;-79
2021/10/06 01:35:46;;;;;;;10.15;3.97;;;13.70;99.90;;;13.67;79.01;100486.41;4843130;29;20049;-79
2021/10/06 01:38:14;;;;;;;11.77;3.83;;;13.60;99.90;;;14.02;77.88;100521.03;4842787;29;20081;-79
2021/10/06 01:40:44;;;;;;;9.50;3.30;;;13.70;99.90;;;14.08;77.38;100517.34;4842168;29;20050;-79
2021/10/06 01:43:12;;;;;;;11.47;3.60;;;13.80;99.90;;;13.83;77.60;100492.25;4842850;29;20493;-79
2021/10/06 01:45:43;;;;;;;6.47;3.70;;;13.80;99.90;;;13.70;79.59;100496.09;4843064;29;20402;-79
2021/10/06 01:48:14;;;;;;;10.18;3.78;;;13.70;99.90;;;13.87;81.22;100518.72;4842800;29;20054;-79
2021/10/06 01:50:44;;;;;;;10.43;4.00;;;13.60;99.90;;;13.78;81.65;100526.91;4842747;29;20054;-80
2021/10/06 01:53:16;;;;;;;9.30;4.10;;;13.60;99.90;;;13.67;82.06;100496.16;4842639;29;20098;-80
2021/10/06 01:55:46;;;;;;;8.70;3.75;;;13.50;99.90;;;13.84;81.58;100524.09;4842994;29;20465;-79
2021/10/06 01:58:19;;;;;;;7.97;3.65;;;13.50;99.90;;;13.73;81.42;100517.28;4842910;29;20042;-80
2021/10/06 02:00:50;;;;;;;8.40;3.60;;;13.50;99.90;;;13.60;81.14;100516.72;4842629;29;20108;-80
2021/10/06 02:03:18;;;;;;;;;;;13.40;99.90;;;13.61;81.45;100530.88;4842989;29;20078;-79
2021/10/06 02:05:47;;;;;;;5.80;3.75;;;13.40;99.90;;;13.55;81.76;100537.19;4841555;29;20382;-80
2021/10/06 02:08:17;;;;;;;8.65;3.50;;;13.40;99.90;;;13.57;82.68;100530.03;4841473;29;20101;-80
2021/10/06 02:10:47;;;;;;;9.43;3.65;;;13.40;99.90;;;13.53;83.35;100528.34;4842680;29;20057;-80
2021/10/06 02:13:16;;;;;;;11.23;3.50;;;13.30;99.90;;;13.70;82.82;100536.84;4842453;29;20450;-80
2021/10/06 02:15:46;;;;;;;10.63;4.22;;;13.40;99.90;;;13.03;82.40;100420.56;4842672;29;20045;-80
2021/10/06 02:18:15;;;;;;;11.90;3.80;;;13.40;99.90;;;13.79;82.14;100533.09;4842754;29;20058;-80
2021/10/06 02:20:43;;;;;;;10.20;3.67;;;13.50;99.90;;;12.96;81.14;100412.75;4841349;29;20370;-79
2021/10/06 02:23:13;;;;;;;10.52;3.67;;;13.50;99.90;;;13.61;81.52;100509.63;4842612;29;20117;-81
2021/10/06 02:25:42;;;;;;;9.93;4.03;;;13.50;99.90;;;13.63;81.09;100518.44;4842520;29;20104;-80
2021/10/06 02:28:14;;;;;;;8.80;3.60;;;13.50;99.90;;;13.67;81.43;100526.28;4841330;29;20050;-80
2021/10/06 02:30:42;;;;;;;5.50;3.30;;;13.50;99.90;;;13.52;82.33;100529.28;4842317;29;20050;-80
2021/10/06 02:33:11;;;;;;;8.52;3.20;;;13.30;99.90;;;13.32;83.15;100507.56;4842447;29;20478;-79
2021/10/06 02:35:39;;;;;;;9.60;3.78;;;13.20;99.90;;;12.80;84.37;100430.75;4842446;29;20457;-78
2021/10/06 02:38:08;;;;;;;12.07;3.88;;;13.10;99.90;;;13.49;84.79;100532.88;4842228;29;20564;-78
2021/10/06 02:40:37;;;;;;;8.57;3.67;;;13.20;99.90;;;13.41;84.58;100534.81;4842191;29;20114;-79
2021/10/06 02:43:05;;;;;;;13.52;4.80;;;13.20;99.90;;;13.58;84.87;100531.81;4842183;29;20407;-79
2021/10/06 02:45:35;;;;;;;13.80;4.15;;;13.30;99.90;;;13.68;85.10;100529.81;4841965;29;20429;-78
2021/10/06 02:48:04;;;;;;;6.93;3.70;;;13.40;99.90;;;13.40;85.03;100500.31;4841181;29;20053;-79
2021/10/06 02:50:33;;;;;;;15.88;4.30;;;13.40;99.90;;;13.64;84.67;100528.13;4840841;29;20064;-79
2021/10/06 02:53:04;;;;;;;10.20;3.72;;;13.40;99.90;;;13.53;85.26;100521.28;4842508;29;20049;-79
2021/10/06 02:55:33;;;;;;;13.32;4.03;;;13.30;99.90;;;13.49;84.95;100516.09;4841072;29;20054;-78
2021/10/06 02:58:01;;;;;;;10.05;3.88;;;13.30;99.90;;;13.56;84.71;100541.59;4841065;29;20054;-79
2021/10/06 03:00:29;;;;;;;12.40;4.53;;;13.30;99.90;;;13.52;84.34;100532.81;4842539;29;20441;-77
2021/10/06 03:02:59;;;;;;;13.52;4.38;;;13.30;99.90;;;13.57;84.88;100536.25;4843309;29;20054;-78
2021/10/06 03:05:28;;;;;;;10.37;3.70;;;13.30;99.90;;;13.42;85.20;100531.28;4845487;29;20054;-79
2021/10/06 03:07:56;;;;;;;10.45;3.67;;;13.20;99.90;;;13.36;85.54;100531.41;4844565;29;20385;-78
2021/10/06 03:10:25;;;;;;;10.77;3.88;;;13.20;99.90;;;13.46;85.30;100524.09;4845652;29;20461;-78
2021/10/06 03:12:53;;;;;;;9.50;3.65;;;13.10;99.90;;;13.38;85.45;100523.38;4845329;29;20054;-78
2021/10/06 03:15:22;;;;;;;13.63;4.10;;;13.20;99.90;;;13.49;85.67;100527.56;4845278;29;20400;-78
2021/10/06 03:17:50;;;;;;;14.30;4.47;;;13.20;99.90;;;13.61;85.42;100530.88;4845767;29;20053;-77
2021/10/06 03:20:20;;;;;;;12.23;3.90;;;13.30;99.90;;;13.55;85.61;100492.00;4845454;29;20483;-79
2021/10/06 03:22:48;;;;;;;11.38;3.65;;;13.40;99.90;;;13.83;85.33;100514.41;4845432;29;20446;-78
2021/10/06 03:25:17;;;;;;;13.27;4.00;;;13.50;99.90;;;13.67;85.18;100513.00;4845183;29;20042;-77
2021/10/06 03:27:45;;;;;;;12.90;4.07;;;13.50;99.90;;;13.28;85.63;100464.28;4845379;29;20442;-78
2021/10/06 03:30:14;;;;;;;20.70;4.97;;;13.30;99.90;;;13.02;85.32;100424.13;4845074;29;20069;-78
2021/10/06 03:32:43;;;;;;;13.10;4.00;;;13.40;99.90;;;13.47;85.64;100501.94;4845010;29;20075;-78
2021/10/06 03:35:12;;;;;;;10.43;3.88;;;13.30;99.90;;;13.30;86.15;100496.09;4844984;29;20397;-78
2021/10/06 03:37:42;;;;;;;12.30;3.85;;;13.10;99.90;;;13.38;86.24;100504.78;4845399;29;20049;-79
2021/10/06 03:40:11;;;;;;;11.63;3.90;;;13.10;99.90;;;13.31;86.02;100504.06;4843964;29;20053;-79
2021/10/06 03:42:39;;;;;;;16.73;4.43;;;13.10;99.90;;;13.25;86.63;100493.56;4843911;29;20056;-78
2021/10/06 03:45:14;;;;;;;11.52;4.35;;;13.00;99.90;;;13.39;86.45;100495.94;4844872;29;20106;-79
2021/10/06 03:47:43;;;;;;;15.85;4.63;;;13.10;99.90;;;13.31;87.62;100505.84;4845181;29;20142;-79
2021/10/06 03:50:14;;;;;;;22.05;5.43;;;13.10;99.90;;;12.99;88.92;100471.94;4844963;29;20056;-78
2021/10/06 03:52:43;;;;;;;20.77;5.32;;;13.00;99.90;;;13.21;89.59;100498.97;4845037;29;20053;-79
2021/10/06 03:55:13;;;;;;;16.23;4.75;;;13.00;99.90;;;13.32;89.90;100500.50;4845236;29;20053;-78
2021/10/06 03:57:42;;;;;;;26.20;6.20;;;13.00;99.90;;;13.37;90.37;100498.63;4844551;29;20102;-78
2021/10/06 04:00:12;;;;;;;26.88;6.18;;;13.10;99.90;;;12.99;90.70;100424.16;4844596;29;20053;-78
2021/10/06 04:02:41;;;;;;;17.33;4.88;;;13.10;99.90;;;13.30;91.26;100491.69;4844534;29;20068;-78
2021/10/06 04:05:10;;;;;;;20.38;5.13;;;13.10;99.90;;;13.04;92.12;100448.00;4844505;29;20065;-78
2021/10/06 04:07:39;;;;;;;21.92;5.93;;;13.00;99.90;;;13.41;91.95;100487.00;4844718;29;20071;-77
2021/10/06 04:10:09;;;;;;;21.95;5.07;;;13.10;99.90;;;13.34;91.76;100484.50;4844453;29;20073;-75
2021/10/06 04:12:38;;;;;;;17.17;4.60;;;13.20;99.90;;;13.50;91.41;100489.47;4843438;29;20065;-75
2021/10/06 04:15:08;;;;;;;16.77;5.18;;;13.20;99.90;;;13.51;91.29;100487.69;4843655;29;20098;-73
2021/10/06 04:17:37;;;;;;;17.92;5.75;;;13.30;99.90;;;13.55;91.00;100484.03;4844376;29;20054;-73
2021/10/06 04:20:06;;;;;;;14.65;4.90;;;13.40;99.90;;;13.53;91.37;100483.19;4844248;29;20081;-73
2021/10/06 04:22:35;;;;;;;20.48;4.88;;;13.30;99.90;;;13.65;91.23;100484.69;4844429;29;20049;-73
2021/10/06 04:25:05;;;;;;;14.65;4.93;;;13.40;99.90;;;13.63;91.38;100482.06;4844155;29;20041;-74
2021/10/06 04:27:35;;;;;;;15.27;5.25;;;13.40;99.90;;;13.63;91.24;100476.75;4844121;29;20074;-74
2021/10/06 04:30:05;;;;;;;20.20;4.20;;;13.50;99.90;;;13.79;90.75;100487.91;4844146;29;20128;-74
2021/10/06 04:32:33;;;;;;;10.38;4.78;;;13.50;99.90;;;13.79;90.69;100488.78;4844056;29;20394;-74
2021/10/06 04:35:02;;;;;;;15.23;4.90;;;13.50;99.90;;;13.29;90.11;100422.66;4843907;29;20080;-74
2021/10/06 04:37:31;;;;;;;17.27;4.72;;;13.50;99.90;;;13.53;90.74;100497.34;4844203;29;20106;-74
2021/10/06 04:39:59;;;;;;;16.20;4.85;;;13.40;99.90;;;13.55;91.42;100506.16;4844225;29;20054;-74
2021/10/06 04:42:28;;;;;;;15.50;5.00;;;13.30;99.90;;;13.52;91.26;100495.63;4843848;29;20496;-73
2021/10/06 04:44:58;;;;;;;12.77;4.82;;;13.40;99.90;;;13.54;91.42;100485.84;4844009;29;20125;-72
2021/10/06 04:47:26;;;;;;;14.57;4.43;;;13.40;99.90;;;13.66;90.30;100513.03;4843812;29;20050;-73
2021/10/06 04:49:55;;;;;;;12.82;4.20;;;13.40;99.90;;;13.49;90.71;100497.47;4843985;29;20319;-73
2021/10/06 04:52:23;;;;;;;12.25;4.03;;;13.40;99.90;;;13.66;90.01;100505.06;4842678;29;20084;-73
2021/10/06 04:54:53;;;;;;;13.43;4.93;;;13.50;99.90;;;13.67;90.27;100525.41;4843800;29;20452;-74
2021/10/06 04:57:21;;;;;;;21.33;6.15;;;13.50;99.90;;;13.65;90.31;100527.22;4843913;29;20511;-74
2021/10/06 04:59:50;;;;;;;19.38;4.90;;;13.40;99.90;;;13.72;90.01;100531.50;4843564;29;20420;-74
2021/10/06 05:02:20;;;;;;;14.32;4.63;;;13.50;99.90;;;13.59;89.90;100502.53;4843506;29;20114;-73
2021/10/06 05:04:48;;;;;;;17.90;4.97;;;13.60;99.90;;;13.80;89.85;100534.88;4844167;29;20046;-73
2021/10/06 05:07:17;;;;;;;18.88;4.80;;;13.60;99.90;;;13.77;89.63;100534.91;4843936;29;20052;-73
2021/10/06 05:09:45;;;;;;;16.38;5.50;;;13.60;99.90;;;13.80;89.79;100542.84;4842324;29;20058;-73
2021/10/06 05:12:13;;;;;;;15.27;4.95;;;13.60;99.90;;;13.76;89.36;100544.69;4843588;29;20081;-74
2021/10/06 05:14:42;;;;;;;19.52;4.85;;;13.60;99.90;;;13.78;89.04;100560.59;4842346;29;20050;-74
2021/10/06 05:17:10;;;;;;;14.07;4.88;;;13.60;99.90;;;13.87;89.24;100555.06;4843568;29;20050;-74
2021/10/06 05:19:40;;;;;;;14.43;4.32;;;13.60;99.90;;;13.19;88.24;100455.63;4843100;29;20488;-74
2021/10/06 05:22:11;;;;;;;14.40;5.10;;;13.60;99.90;;;13.73;87.94;100551.84;4843464;29;20049;-74
2021/10/06 05:24:40;;;;;;;14.68;5.07;;;13.60;99.90;;;13.80;87.51;100561.44;4843319;29;20137;-74
2021/10/06 05:27:08;;;;;;;17.48;4.40;;;13.60;99.90;;;13.56;86.85;100537.16;4842768;29;20473;-74
2021/10/06 05:29:37;;;;;;;15.05;4.55;;;13.60;99.90;;;13.65;87.26;100551.13;4842081;29;20060;-75
2021/10/06 05:32:07;;;;;;;15.85;4.97;;;13.60;99.90;;;13.79;87.81;100567.66;4842897;29;20390;-75
2021/10/06 05:34:35;;;;;;;17.55;5.13;;;13.60;99.90;;;13.77;88.13;100559.72;4841881;29;20394;-75
2021/10/06 05:37:05;;;;;;;16.70;4.90;;;13.60;99.90;;;13.82;87.05;100578.25;4841920;29;20454;-75
2021/10/06 05:39:33;;;;;;;19.80;5.60;;;13.60;99.90;;;13.92;87.22;100585.09;4842873;29;20054;-75
2021/10/06 05:42:02;;;;;;;16.58;5.07;;;13.70;99.90;;;13.86;87.00;100580.78;4842720;29;20130;-75
2021/10/06 05:44:31;;;;;;;21.80;5.25;;;13.70;99.90;;;13.98;86.49;100585.81;4841458;29;20604;-75
2021/10/06 05:46:59;;;;;;;16.02;4.47;;;13.70;99.90;;;14.00;86.46;100591.09;4841823;29;20493;-75
2021/10/06 05:49:28;;;;;;;14.05;5.22;;;13.80;99.90;;;13.73;86.46;100541.22;4842874;29;20471;-75
2021/10/06 05:51:57;;;;;;;12.52;4.80;;;13.80;99.90;;;14.07;86.05;100590.06;4842692;29;20081;-75
2021/10/06 05:54:26;;;;;;;12.43;4.65;;;13.90;99.90;;;13.87;86.08;100577.22;4842725;29;20549;-74
2021/10/06 05:56:55;;;;;;;15.73;4.60;;;13.90;99.90;;;14.00;85.69;100604.41;4842857;29;20046;-75
2021/10/06 05:59:23;;;;;;;18.67;5.35;;;13.80;99.90;;;14.07;86.25;100617.53;4842594;29;20776;-75
2021/10/06 06:01:52;;;;;;;16.52;5.05;;;13.90;99.90;;;13.96;85.88;100598.28;4842450;29;20050;-75
2021/10/06 06:04:20;;;;;;;14.27;4.70;;;13.90;99.90;;;14.08;85.66;100613.09;4843014;29;20312;-75
2021/10/06 06:06:49;;;;;;;13.05;5.32;;;13.90;99.90;;;14.16;85.46;100627.09;4842375;29;20042;-75
2021/10/06 06:09:20;;;;;;;18.17;5.07;;;14.00;99.90;;;14.17;85.49;100624.38;4842531;29;20492;-74
2021/10/06 06:11:51;;;;;;;18.63;4.40;;;14.00;99.90;;;14.22;85.43;100626.97;4842830;29;20046;-75
2021/10/06 06:14:20;;;;;;;;;;;14.00;99.90;;;14.16;84.83;100633.28;4841777;29;20061;-76
2021/10/06 06:16:48;;;;;;;12.82;4.20;;;14.00;99.90;;;14.17;84.87;100639.47;4842839;29;20370;-75
2021/10/06 06:19:17;;;;;;;14.68;4.78;;;14.00;99.90;;;14.34;84.96;100637.34;4842327;29;20046;-75
2021/10/06 06:21:46;;;;;;;12.68;4.60;;;14.10;99.90;;;14.25;84.92;100633.06;4842382;29;20046;-75
2021/10/06 06:24:14;;;;;;;13.48;4.40;;;14.10;99.90;;;14.21;85.06;100643.81;4842547;29;20064;-75
2021/10/06 06:26:42;;;;;;;12.38;3.88;;;14.00;99.90;;;14.21;85.02;100634.06;4842434;29;20048;-75
2021/10/06 06:29:15;;;;;;;11.93;4.07;;;14.10;99.90;;;14.20;85.46;100621.69;4842102;29;20054;-75
2021/10/06 06:31:43;;;;;;;15.10;4.40;;;14.10;99.90;;;14.27;85.87;100647.25;4842215;29;20050;-76
2021/10/06 06:34:12;;;;;;;9.32;4.72;;;14.10;99.90;;;14.21;86.03;100651.78;4842359;29;20427;-76
2021/10/06 06:36:40;;;;;;;10.93;4.00;;;14.10;99.90;;;14.20;86.39;100652.72;4841150;29;20054;-78
2021/10/06 06:39:09;;;;;;;13.48;3.90;;;14.10;99.90;;;14.20;86.52;100656.25;4845156;29;20180;-79
2021/10/06 06:41:37;;;;;;;13.38;4.50;;;14.00;99.90;;;14.25;87.40;100664.13;4846233;29;20061;-74
2021/10/06 06:44:09;;;;;;;14.90;4.93;;;14.00;99.90;;;14.31;87.36;100674.66;4844771;29;20557;-78
2021/10/06 06:46:39;;;;;;;13.95;5.28;;;14.10;99.90;;;14.28;87.84;100670.31;4846101;29;20153;-77
2021/10/06 06:49:08;;;;;;;14.15;4.80;;;14.10;99.90;;;14.37;87.91;100664.75;4846144;29;20420;-76
2021/10/06 06:51:36;;;;;;;14.70;4.47;;;14.20;99.90;;;13.86;88.32;100587.91;4845796;29;20053;-78
2021/10/06 06:54:05;;;;;;;20.80;4.95;;;14.20;99.90;;;14.40;88.24;100675.31;4845266;29;20106;-77
2021/10/06 06:56:38;;;;;;;22.33;5.35;;;14.20;99.90;;;14.51;88.03;100676.84;4845448;29;20449;-75
2021/10/06 06:59:10;;;;;;;16.98;5.78;;;14.30;99.90;;;14.26;88.25;100657.91;4845741;29;20049;-74
2021/10/06 07:01:40;;;;;;;14.80;4.90;;;14.20;99.90;;;14.17;88.86;100671.38;4845608;29;20485;-74
2021/10/06 07:04:09;;;;;;;21.05;4.93;;;14.20;99.90;;;14.27;89.58;100699.53;4845610;29;20057;-74
2021/10/06 07:06:38;;;;;;;17.65;5.28;;;14.10;99.90;;;14.13;89.72;100683.03;4845559;29;20120;-74
2021/10/06 07:09:07;;;;;;;17.60;5.03;;;14.00;99.90;;;14.15;90.53;100692.72;4845742;29;20073;-74
2021/10/06 07:11:35;;;;;;;22.80;5.25;;;13.90;99.90;;;14.10;90.49;100699.03;4845667;29;20381;-75
2021/10/06 07:14:04;;;;;;;19.35;5.03;;;13.90;99.90;;;14.08;90.54;100703.50;4845676;29;20369;-74
2021/10/06 07:16:32;;;;;;;13.73;4.63;;;13.90;99.90;;;14.07;90.68;100704.44;4845255;29;20050;-74
2021/10/06 07:19:02;;;;;;;18.27;5.35;;;13.90;99.90;;;14.06;90.41;100710.66;4845622;29;20408;-74
2021/10/06 07:21:31;;;;;;;17.45;5.18;;;13.90;99.90;;;14.06;90.50;100705.34;4845192;29;20114;-75
2021/10/06 07:23:59;;;;;;;17.38;4.80;;;13.90;99.90;;;13.86;90.20;100715.53;4845140;29;20072;-75
2021/10/06 07:26:28;;;;;;;18.63;4.85;;;13.70;99.90;;;13.97;89.97;100711.72;4845231;29;20565;-75
2021/10/06 07:28:56;;;;;;;16.70;5.50;;;13.80;99.90;;;13.88;90.48;100730.50;4845154;29;20552;-75
2021/10/06 07:31:24;;;;;;;13.55;4.60;;;13.70;99.90;;;13.90;91.33;100736.69;4845050;29;20106;-73
2021/10/06 07:33:53;;;;;;;18.73;5.40;;;13.70;99.90;;;14.00;91.18;100737.38;4845094;29;20053;-71
2021/10/06 07:36:24;;;;;;;14.05;4.78;;;13.70;99.90;;;13.91;90.95;100745.53;4845162;29;20045;-74
2021/10/06 07:38:53;;;;;;;20.02;5.32;;;13.70;99.90;;;13.96;90.16;100746.31;4845643;29;20057;-77
2021/10/06 07:41:22;;;;;;;17.60;4.93;;;13.70;99.90;;;13.93;90.52;100757.91;4844013;29;20110;-72
2021/10/06 07:43:50;;;;;;;14.23;5.32;;;13.70;99.90;;;13.95;90.26;100736.59;4844973;29;20041;-76
2021/10/06 07:46:19;;;;;;;24.13;4.90;;;13.70;99.90;;;14.07;90.43;100757.63;4844994;29;20401;-70
2021/10/06 07:48:48;;;;;;;12.85;4.65;;;13.90;99.90;;;13.92;90.34;100739.31;4844669;29;20098;-73
2021/10/06 07:51:17;;;;;;;19.90;5.32;;;13.90;99.90;;;14.01;90.22;100758.63;4844794;29;20500;-74
2021/10/06 07:53:48;;;;;;;20.00;4.93;;;13.90;99.90;;;14.04;90.25;100747.94;4844788;29;20045;-74
2021/10/06 07:56:18;;;;;;;24.85;6.25;;;13.90;99.90;;;14.03;89.92;100754.13;4844884;29;20053;-72
2021/10/06 07:58:46;;;;;;;14.52;4.97;;;13.90;99.90;;;14.21;89.21;100756.44;4845128;29;20042;-73
2021/10/06 08:01:14;;;;;;;16.15;5.78;;;14.00;99.90;;;14.16;89.34;100773.41;4844573;29;20117;-72
2021/10/06 08:03:53;;;;;;;13.93;4.53;;;14.00;99.90;;;13.71;89.65;100703.41;4843728;29;20062;-73
2021/10/06 08:06:21;;;;;;;15.15;4.63;;;14.00;99.90;;;13.95;91.50;100781.81;4845163;29;20046;-70
2021/10/06 08:08:51;;;;;;;20.27;6.47;;;13.80;99.90;;;13.91;92.60;100769.47;4844352;29;20050;-76
2021/10/06 08:11:19;;;;;;;18.13;5.27;;;13.80;99.90;;;13.99;92.69;100784.38;4844432;29;20050;-72
2021/10/06 08:13:48;;;;;;;14.48;4.93;;;13.80;99.90;;;14.04;92.36;100778.97;4844562;29;20082;-72
2021/10/06 08:16:16;;;;;;;16.33;5.13;;;13.80;99.90;;;14.03;92.01;100783.38;4844257;29;20110;-72
2021/10/06 08:18:45;;;;;;;16.85;5.43;;;13.80;99.90;;;13.48;91.77;100676.41;4844586;29;20041;-72
2021/10/06 08:21:16;;;;;;;16.55;4.85;;;13.90;99.90;;;14.19;91.64;100807.91;4844534;29;20051;-72
2021/10/06 08:23:45;;;;;;;22.02;5.85;;;14.00;99.90;;;14.15;91.54;100803.56;4844333;29;20124;-72
2021/10/06 08:26:14;;;;;;;20.10;5.53;;;13.90;99.90;;;14.08;91.29;100793.94;4844145;29;20118;-72
2021/10/06 08:28:43;;;;;;;22.05;5.32;;;14.00;99.90;;;14.29;90.89;100799.75;4844268;29;20078;-72
2021/10/06 08:31:11;;;;;;;28.85;5.82;;;14.10;99.90;;;14.36;90.91;100821.78;4844271;29;20125;-72
2021/10/06 08:33:39;;;;;;;23.63;6.10;;;14.20;99.90;;;14.44;90.61;100830.47;4844673;29;20477;-72
2021/10/06 08:36:08;;;;;;;19.63;5.75;;;14.20;99.90;;;14.42;90.33;100816.31;4844172;29;20114;-72
2021/10/06 08:38:37;;;;;;;24.52;5.63;;;14.30;99.90;;;14.38;90.08;100817.31;4843962;29;20054;-72
2021/10/06 08:41:06;;;;;;;18.73;5.88;;;14.30;99.90;;;14.59;89.63;100840.81;4844377;29;20111;-72
2021/10/06 08:43:38;;;;;;;;;;;14.40;99.90;;;14.64;90.08;100846.03;4844429;29;20496;-72
2021/10/06 08:46:07;;;;;;;23.42;6.82;;;14.40;99.90;;;14.37;90.10;100776.53;4843982;29;19924;-72
2021/10/06 08:48:35;;;;;;;30.25;6.30;;;14.60;99.90;;;14.80;89.36;100851.00;4843005;29;20044;-71
2021/10/06 08:51:04;;;;;;;22.48;5.30;;;14.60;99.90;;;14.79;88.99;100859.88;4843887;29;20045;-72
2021/10/06 08:53:48;;;;;;;21.05;6.15;;;14.60;99.90;;;15.03;89.32;100851.38;4842844;29;20049;-72
2021/10/06 08:56:18;;;;;;;24.00;6.57;;;14.80;99.90;;;15.03;88.92;100870.03;4843547;29;20081;-71
2021/10/06 08:58:48;;;;;;;24.27;6.80;;;14.80;99.90;;;15.09;89.61;100884.97;4843789;29;20105;-72
2021/10/06 09:01:27;;;;;;;21.02;5.95;;;14.90;99.90;;;15.13;89.37;100889.34;4843000;29;20136;-72
2021/10/06 09:03:58;;;;;;;25.50;6.40;;;14.90;99.90;;;15.03;90.24;100883.34;4843671;29;20046;-72
2021/10/06 09:06:37;;;;;;;23.23;6.20;;;14.80;99.90;;;14.66;90.09;100831.78;4843523;29;20050;-72
2021/10/06 09:09:18;;;;;;;22.35;6.18;;;14.90;99.90;;;14.80;90.51;100859.00;4843900;29;20045;-72
2021/10/06 09:11:50;;;;;;;16.85;5.63;;;14.80;99.90;;;15.04;90.05;100914.38;4843628;29;20042;-72
2021/10/06 09:14:21;;;;;;;28.40;6.30;;;14.80;99.90;;;14.91;90.69;100904.03;4843308;29;20046;-72
2021/10/06 09:17:06;;;;;;;26.45;6.82;;;14.80;99.90;;;15.06;90.93;100907.22;4843199;29;20106;-72
2021/10/06 09:19:43;;;;;;;24.20;6.20;;;14.90;99.90;;;14.94;91.13;100910.16;4843311;29;20112;-72
2021/10/06 09:22:18;;;;;;;23.85;5.88;;;14.90;99.90;;;15.06;91.08;100939.19;4843240;29;20057;-72
2021/10/06 09:25:06;;;;;;;28.20;6.45;;;14.90;99.90;;;14.91;91.52;100943.97;4841902;29;20053;-73
2021/10/06 09:27:39;;;;;;;18.77;5.28;;;14.80;99.90;;;14.85;90.95;100922.78;4843668;29;20061;-72
2021/10/06 09:30:11;;;;;;;27.90;6.38;;;14.80;99.90;;;15.03;90.84;100952.59;4843118;29;20084;-72
2021/10/06 09:32:43;;;;;;;23.95;6.20;;;14.80;99.90;;;15.22;90.44;100961.94;4843090;29;20053;-72
2021/10/06 09:35:14;;;;;;;23.23;6.00;;;15.00;99.90;;;15.33;89.41;100973.25;4843018;29;20083;-72
2021/10/06 09:37:46;;;;;;;21.52;5.55;;;15.10;99.90;;;15.55;89.34;100971.00;4842943;29;20073;-72
2021/10/06 09:40:17;;;;;;;25.73;6.05;;;15.30;99.90;;;15.80;88.66;100976.63;4842925;29;20053;-72
2021/10/06 09:42:48;;;;;;;21.30;6.47;;;15.60;99.90;;;15.92;86.78;100984.34;4843273;29;20052;-72
2021/10/06 09:45:30;;;;;;;17.58;5.15;;;15.70;99.90;;;15.82;85.40;100966.81;4842721;29;20061;-71
2021/10/06 09:48:10;;;;;;;18.60;5.47;;;15.80;99.90;;;16.14;84.28;100998.94;4841927;29;20145;-72
2021/10/06 09:50:42;;;;;;;15.10;4.20;;;15.90;99.90;;;15.95;82.65;100986.97;4842979;29;20046;-72
2021/10/06 09:53:13;;;;;;;14.00;4.43;;;15.90;99.90;;;16.10;82.60;101007.94;4841753;29;20172;-72
2021/10/06 09:55:43;;;;;;;;;;;15.90;99.90;;;16.06;82.05;100990.22;4843247;29;20057;-72
2021/10/06 09:58:13;;;;;;;14.32;4.72;;;16.00;99.90;;;16.27;81.46;101016.38;4842849;29;19925;-72
2021/10/06 10:00:46;;;;;;;18.02;3.95;;;16.00;99.90;;;15.63;81.10;100910.38;4842734;29;20048;-72
2021/10/06 10:03:15;;;;;;;17.02;4.60;;;16.10;99.90;;;16.34;80.89;101017.97;4841750;29;20296;-72
2021/10/06 10:05:44;;;;;;;15.32;4.35;;;16.10;99.90;;;16.50;81.62;101030.06;4842849;29;20066;-72
2021/10/06 10:08:12;;;;;;;16.90;5.38;;;16.30;99.90;;;16.50;81.82;101014.03;4842931;29;20057;-72
2021/10/06 10:10:40;;;;;;;16.73;4.78;;;16.30;99.90;;;16.36;82.91;101024.16;4842535;29;20073;-72
2021/10/06 10:13:09;;;;;;;20.80;5.07;;;16.20;99.90;;;16.04;84.07;101035.63;4841667;29;20441;-72
2021/10/06 10:15:37;;;;;;;20.30;4.85;;;15.90;99.90;;;16.00;85.39;101038.41;4843124;29;20076;-72
2021/10/06 10:18:10;;;;;;;17.50;4.78;;;15.80;99.90;;;15.98;85.64;101040.22;4842614;29;20054;-72